Time;durP1;ratioP1;P1;durP2;ratioP2;P2;SDS_P1;SDS_P2;PMS_P1;PMS_P2;Temp;Humidity;BMP_temperature;BMP_pressure;BME280_temperature;BME280_humidity;BME280_pressure;Samples;Min_cycle;Max_cycle;Signal;HPM_P1;HPM_P2
2023/09/22 00:01:46;;;;;;;11.10;10.60;;;;;;;;;;5106634;27;20020;-63
2023/09/22 00:04:11;;;;;;;11.25;10.75;;;;;;;;;;5103732;27;20123;-63
2023/09/22 00:06:37;;;;;;;11.40;10.90;;;;;;;;;;5107982;27;20050;-62
2023/09/22 00:09:02;;;;;;;11.48;10.98;;;;;;;;;;5106890;27;20058;-62
2023/09/22 00:11:28;;;;;;;11.20;10.70;;;;;;;;;;5107676;27;20035;-63
2023/09/22 00:13:53;;;;;;;11.60;11.10;;;;;;;;;;5107207;27;20045;-63
2023/09/22 00:16:18;;;;;;;11.25;10.75;;;;;;;;;;5106849;27;20050;-64
2023/09/22 00:18:43;;;;;;;10.88;10.38;;;;;;;;;;5111668;28;20442;-64
2023/09/22 00:21:09;;;;;;;11.55;11.05;;;;;;;;;;5109378;28;20371;-65
2023/09/22 00:23:34;;;;;;;10.88;10.38;;;;;;;;;;5108067;28;20378;-64
2023/09/22 00:26:01;;;;;;;11.15;10.65;;;;;;;;;;5111202;27;20615;-64
2023/09/22 00:28:27;;;;;;;11.25;10.75;;;;;;;;;;5105498;27;20081;-64
2023/09/22 00:30:52;;;;;;;11.10;10.60;;;;;;;;;;5104771;27;20023;-64
2023/09/22 00:33:18;;;;;;;11.00;10.50;;;;;;;;;;5107112;27;20051;-64
2023/09/22 00:35:43;;;;;;;11.30;10.80;;;;;;;;;;5109443;27;20019;-64
2023/09/22 00:38:10;;;;;;;11.50;11.00;;;;;;;;;;5109650;27;20020;-64
2023/09/22 00:40:35;;;;;;;11.07;10.57;;;;;;;;;;5105696;28;20020;-63
2023/09/22 00:43:09;;;;;;;11.30;10.80;;;;;;;;;;5104396;27;20122;-63
2023/09/22 00:45:36;;;;;;;11.20;10.70;;;;;;;;;;5111201;28;20547;-64
2023/09/22 00:48:04;;;;;;;10.88;10.38;;;;;;;;;;5108616;28;20027;-64
2023/09/22 00:50:31;;;;;;;10.93;10.43;;;;;;;;;;5102923;28;20015;-64
2023/09/22 00:52:56;;;;;;;10.98;10.48;;;;;;;;;;5112461;27;20020;-64
2023/09/22 00:55:22;;;;;;;10.98;10.48;;;;;;;;;;5104851;28;20030;-64
2023/09/22 00:57:47;;;;;;;11.15;10.65;;;;;;;;;;5108952;28;20372;-64
2023/09/22 01:00:13;;;;;;;11.20;10.70;;;;;;;;;;5109250;28;20058;-65
2023/09/22 01:02:38;;;;;;;11.10;10.60;;;;;;;;;;5112016;28;20015;-64
2023/09/22 01:05:04;;;;;;;11.27;10.77;;;;;;;;;;5109780;28;20008;-63
2023/09/22 01:07:30;;;;;;;11.25;10.75;;;;;;;;;;5109314;28;20032;-64
2023/09/22 01:10:06;;;;;;;11.45;10.95;;;;;;;;;;5108394;28;20138;-63
2023/09/22 01:12:31;;;;;;;11.18;10.68;;;;;;;;;;5111979;28;20020;-65
2023/09/22 01:14:56;;;;;;;11.07;10.57;;;;;;;;;;5110575;28;20019;-63
2023/09/22 01:17:23;;;;;;;11.00;10.50;;;;;;;;;;5110090;28;20492;-65
2023/09/22 01:19:48;;;;;;;11.35;10.85;;;;;;;;;;5113076;27;20406;-64
2023/09/22 01:22:14;;;;;;;11.02;10.52;;;;;;;;;;5113302;27;20033;-64
2023/09/22 01:24:39;;;;;;;11.13;10.63;;;;;;;;;;5110764;27;20015;-64
2023/09/22 01:27:05;;;;;;;11.13;10.63;;;;;;;;;;5109821;27;20031;-63
2023/09/22 01:29:30;;;;;;;10.93;10.43;;;;;;;;;;5091940;27;20058;-65
2023/09/22 01:31:56;;;;;;;11.18;10.68;;;;;;;;;;5113513;27;20103;-64
2023/09/22 01:34:21;;;;;;;11.30;10.80;;;;;;;;;;5109655;27;20074;-64
2023/09/22 01:36:47;;;;;;;11.30;10.80;;;;;;;;;;5106939;27;20641;-64
2023/09/22 01:39:16;;;;;;;11.35;10.85;;;;;;;;;;5110443;27;20422;-63
2023/09/22 01:41:41;;;;;;;11.43;10.93;;;;;;;;;;5106549;27;20038;-63
2023/09/22 01:44:07;;;;;;;11.50;11.00;;;;;;;;;;5112288;27;20031;-63
2023/09/22 01:46:32;;;;;;;12.15;11.55;;;;;;;;;;5108412;27;20114;-63
2023/09/22 01:48:57;;;;;;;11.50;11.00;;;;;;;;;;5111148;27;20027;-63
2023/09/22 01:51:23;;;;;;;11.43;10.93;;;;;;;;;;5106947;27;20019;-63
2023/09/22 01:53:49;;;;;;;11.07;10.57;;;;;;;;;;5110962;27;20027;-63
2023/09/22 01:56:14;;;;;;;11.43;10.93;;;;;;;;;;5113364;27;20016;-64
2023/09/22 01:58:39;;;;;;;11.20;10.70;;;;;;;;;;5105195;27;20363;-64
2023/09/22 02:01:05;;;;;;;11.45;10.95;;;;;;;;;;5108673;27;20063;-63
2023/09/22 02:03:30;;;;;;;11.55;11.05;;;;;;;;;;5113457;27;20075;-64
2023/09/22 02:05:58;;;;;;;11.32;10.82;;;;;;;;;;5107775;27;20051;-63
2023/09/22 02:08:24;;;;;;;11.68;11.18;;;;;;;;;;5108732;27;20035;-64
2023/09/22 02:10:49;;;;;;;11.20;10.70;;;;;;;;;;5109726;27;20027;-63
2023/09/22 02:13:14;;;;;;;11.20;10.70;;;;;;;;;;5107878;27;20027;-64
2023/09/22 02:15:40;;;;;;;11.45;10.95;;;;;;;;;;5108961;27;20109;-63
2023/09/22 02:18:05;;;;;;;11.23;10.73;;;;;;;;;;5112828;27;20518;-64
2023/09/22 02:20:31;;;;;;;11.52;11.02;;;;;;;;;;5111271;27;20581;-64
2023/09/22 02:22:56;;;;;;;11.38;10.88;;;;;;;;;;5107143;27;20032;-64
2023/09/22 02:25:22;;;;;;;11.27;10.77;;;;;;;;;;5106981;27;20099;-64
2023/09/22 02:27:48;;;;;;;11.00;10.50;;;;;;;;;;5109978;27;20111;-64
2023/09/22 02:30:14;;;;;;;11.38;10.88;;;;;;;;;;5108000;27;20108;-64
2023/09/22 02:32:41;;;;;;;11.40;10.90;;;;;;;;;;5107751;27;20506;-64
2023/09/22 02:35:07;;;;;;;11.60;11.10;;;;;;;;;;5109304;27;20049;-64
2023/09/22 02:37:33;;;;;;;11.30;10.80;;;;;;;;;;5107422;27;20032;-64
2023/09/22 02:39:58;;;;;;;11.18;10.68;;;;;;;;;;5109170;27;20705;-66
2023/09/22 02:42:24;;;;;;;10.85;10.35;;;;;;;;;;5110636;27;20549;-64
2023/09/22 02:44:50;;;;;;;11.63;11.13;;;;;;;;;;5108662;27;20032;-64
2023/09/22 02:47:15;;;;;;;11.50;11.00;;;;;;;;;;5106225;27;20028;-64
2023/09/22 02:49:41;;;;;;;11.20;10.70;;;;;;;;;;5089245;28;20085;-65
2023/09/22 02:52:06;;;;;;;11.43;10.93;;;;;;;;;;5109519;27;20024;-64
2023/09/22 02:54:32;;;;;;;11.27;10.77;;;;;;;;;;5111436;27;20500;-65
2023/09/22 02:56:57;;;;;;;11.30;10.80;;;;;;;;;;5108816;27;20018;-63
2023/09/22 02:59:23;;;;;;;11.10;10.60;;;;;;;;;;5107256;27;20095;-64
2023/09/22 03:01:49;;;;;;;11.27;10.77;;;;;;;;;;5110224;27;20023;-64
2023/09/22 03:04:15;;;;;;;11.50;11.00;;;;;;;;;;5108166;27;20035;-64
2023/09/22 03:06:40;;;;;;;12.23;11.63;;;;;;;;;;5094352;27;20139;-64
2023/09/22 03:09:06;;;;;;;11.07;10.57;;;;;;;;;;5106454;27;20024;-64
2023/09/22 03:11:37;;;;;;;11.80;11.30;;;;;;;;;;5111029;27;20106;-65
2023/09/22 03:14:03;;;;;;;11.40;10.90;;;;;;;;;;5105569;27;20024;-63
2023/09/22 03:16:29;;;;;;;11.57;11.07;;;;;;;;;;5108206;27;20019;-65
2023/09/22 03:18:55;;;;;;;11.77;11.27;;;;;;;;;;5107339;27;20019;-64
2023/09/22 03:21:22;;;;;;;11.30;10.80;;;;;;;;;;5110315;27;20096;-64
2023/09/22 03:23:51;;;;;;;11.32;10.82;;;;;;;;;;5107431;27;20031;-63
2023/09/22 03:26:18;;;;;;;11.10;10.60;;;;;;;;;;5110005;27;20054;-63
2023/09/22 03:28:43;;;;;;;10.95;10.45;;;;;;;;;;5106776;27;20112;-63
2023/09/22 03:31:08;;;;;;;11.10;10.60;;;;;;;;;;5110281;27;20024;-63
2023/09/22 03:33:35;;;;;;;10.85;10.35;;;;;;;;;;5103655;27;20020;-62
2023/09/22 03:36:01;;;;;;;11.10;10.60;;;;;;;;;;5107013;27;20032;-64
2023/09/22 03:38:28;;;;;;;11.27;10.77;;;;;;;;;;5105033;27;20110;-64
2023/09/22 03:40:59;;;;;;;11.60;11.10;;;;;;;;;;5107016;27;20035;-63
2023/09/22 03:43:25;;;;;;;11.43;10.93;;;;;;;;;;5103349;27;20030;-64
2023/09/22 03:45:53;;;;;;;11.52;11.02;;;;;;;;;;5106748;27;20069;-64
2023/09/22 03:48:20;;;;;;;11.88;11.38;;;;;;;;;;5104157;27;20761;-65
2023/09/22 03:50:46;;;;;;;11.88;11.35;;;;;;;;;;5103047;27;20107;-64
2023/09/22 03:53:11;;;;;;;11.50;11.00;;;;;;;;;;5106426;27;20042;-64
2023/09/22 03:55:37;;;;;;;11.48;10.98;;;;;;;;;;5106079;27;20051;-63
2023/09/22 03:58:03;;;;;;;11.25;10.75;;;;;;;;;;5086072;28;20024;-63
2023/09/22 04:00:28;;;;;;;11.48;10.98;;;;;;;;;;5108518;27;20047;-63
2023/09/22 04:02:54;;;;;;;11.80;11.30;;;;;;;;;;5101315;27;20485;-65
2023/09/22 04:05:27;;;;;;;11.52;11.02;;;;;;;;;;5102835;27;20413;-64
2023/09/22 04:07:54;;;;;;;11.77;11.27;;;;;;;;;;5106502;27;20036;-64
2023/09/22 04:10:19;;;;;;;11.63;11.13;;;;;;;;;;5103017;28;20038;-64
2023/09/22 04:12:45;;;;;;;11.82;11.32;;;;;;;;;;5102377;28;20110;-64
2023/09/22 04:15:10;;;;;;;11.65;11.15;;;;;;;;;;5097290;27;20544;-62
2023/09/22 04:17:38;;;;;;;11.90;11.40;;;;;;;;;;5093227;28;20054;-61
2023/09/22 04:20:07;;;;;;;11.65;11.15;;;;;;;;;;5102933;28;20031;-61
2023/09/22 04:22:33;;;;;;;11.60;11.10;;;;;;;;;;5100383;28;20070;-61
2023/09/22 04:25:08;;;;;;;11.90;11.40;;;;;;;;;;5098760;28;20653;-61
2023/09/22 04:27:35;;;;;;;11.38;10.88;;;;;;;;;;5096252;28;20024;-61
2023/09/22 04:30:07;;;;;;;11.70;11.20;;;;;;;;;;5100585;28;20036;-62
2023/09/22 04:32:33;;;;;;;11.63;11.13;;;;;;;;;;5101521;28;20050;-61
2023/09/22 04:35:02;;;;;;;12.07;11.57;;;;;;;;;;5103927;28;20104;-60
2023/09/22 04:37:28;;;;;;;11.40;10.90;;;;;;;;;;5102885;28;20086;-61
2023/09/22 04:39:54;;;;;;;11.52;11.02;;;;;;;;;;5101586;28;20019;-61
2023/09/22 04:42:19;;;;;;;11.85;11.35;;;;;;;;;;5101541;27;20490;-61
2023/09/22 04:44:45;;;;;;;12.00;11.50;;;;;;;;;;5101181;28;20066;-61
2023/09/22 04:47:10;;;;;;;11.90;11.40;;;;;;;;;;5100921;28;20016;-61
2023/09/22 04:49:36;;;;;;;11.40;10.90;;;;;;;;;;5100464;28;20630;-62
2023/09/22 04:52:02;;;;;;;11.70;11.20;;;;;;;;;;5102608;28;20023;-60
2023/09/22 04:54:29;;;;;;;11.50;11.00;;;;;;;;;;5102953;28;20422;-60
2023/09/22 04:56:54;;;;;;;11.35;10.85;;;;;;;;;;5096080;28;20031;-61
2023/09/22 04:59:19;;;;;;;11.50;11.00;;;;;;;;;;5102557;27;20028;-62
2023/09/22 05:01:45;;;;;;;11.68;11.18;;;;;;;;;;5101445;28;20019;-60
2023/09/22 05:04:10;;;;;;;12.07;11.52;;;;;;;;;;5096522;28;20037;-60
2023/09/22 05:06:36;;;;;;;11.50;11.00;;;;;;;;;;5094756;28;20036;-60
2023/09/22 05:09:01;;;;;;;11.13;10.63;;;;;;;;;;5098350;28;20168;-61
2023/09/22 05:11:26;;;;;;;11.65;11.15;;;;;;;;;;5096455;28;20386;-62
2023/09/22 05:13:52;;;;;;;11.80;11.30;;;;;;;;;;5104823;27;20023;-60
2023/09/22 05:16:18;;;;;;;11.15;10.65;;;;;;;;;;5089250;28;20048;-60
2023/09/22 05:18:44;;;;;;;11.07;10.57;;;;;;;;;;5086234;28;20042;-60
2023/09/22 05:21:09;;;;;;;11.25;10.75;;;;;;;;;;5087765;28;20475;-61
2023/09/22 05:23:35;;;;;;;11.30;10.80;;;;;;;;;;5087353;28;20025;-61
2023/09/22 05:26:07;;;;;;;11.25;10.75;;;;;;;;;;5084617;28;20031;-61
2023/09/22 05:28:32;;;;;;;11.68;11.18;;;;;;;;;;5088190;28;20020;-61
2023/09/22 05:30:58;;;;;;;12.07;11.57;;;;;;;;;;5078722;28;20031;-62
2023/09/22 05:33:24;;;;;;;11.25;10.75;;;;;;;;;;5080099;28;20029;-61
2023/09/22 05:35:49;;;;;;;11.60;11.10;;;;;;;;;;5086383;28;20030;-62
2023/09/22 05:38:15;;;;;;;11.57;11.07;;;;;;;;;;5086140;28;20036;-62
2023/09/22 05:40:40;;;;;;;11.70;11.20;;;;;;;;;;5086342;28;20453;-60
2023/09/22 05:43:05;;;;;;;11.15;10.65;;;;;;;;;;5081966;28;20115;-61
2023/09/22 05:45:31;;;;;;;11.23;10.73;;;;;;;;;;5084615;28;20026;-62
2023/09/22 05:47:56;;;;;;;11.23;10.73;;;;;;;;;;5082926;28;20024;-60
2023/09/22 05:50:23;;;;;;;11.40;10.90;;;;;;;;;;5088090;28;20102;-62
2023/09/22 05:52:49;;;;;;;11.25;10.75;;;;;;;;;;5083943;28;20035;-61
2023/09/22 05:55:14;;;;;;;11.23;10.73;;;;;;;;;;5092559;28;20100;-62
2023/09/22 05:57:40;;;;;;;11.15;10.65;;;;;;;;;;5085541;28;20464;-61
2023/09/22 06:00:18;;;;;;;10.93;10.43;;;;;;;;;;5083067;28;20456;-62
2023/09/22 06:02:50;;;;;;;11.25;10.75;;;;;;;;;;5078702;28;20042;-61
2023/09/22 06:05:20;;;;;;;11.40;10.90;;;;;;;;;;5086216;28;20036;-62
2023/09/22 06:07:46;;;;;;;11.35;10.85;;;;;;;;;;5079502;28;20047;-62
2023/09/22 06:10:12;;;;;;;12.07;11.57;;;;;;;;;;5081948;28;20043;-62
2023/09/22 06:12:38;;;;;;;11.60;11.10;;;;;;;;;;5084849;28;20111;-61
2023/09/22 06:15:06;;;;;;;11.45;10.95;;;;;;;;;;5081912;28;20584;-61
2023/09/22 06:17:32;;;;;;;11.70;11.20;;;;;;;;;;5083807;28;20484;-61
2023/09/22 06:19:57;;;;;;;11.50;11.00;;;;;;;;;;5088568;28;20063;-61
2023/09/22 06:22:23;;;;;;;11.60;11.10;;;;;;;;;;5083796;28;20028;-60
2023/09/22 06:24:50;;;;;;;11.75;11.25;;;;;;;;;;5087263;28;20069;-60
2023/09/22 06:27:16;;;;;;;11.40;10.90;;;;;;;;;;5079922;28;20887;-61
2023/09/22 06:29:41;;;;;;;11.50;11.00;;;;;;;;;;5087718;28;20020;-62
2023/09/22 06:32:07;;;;;;;11.35;10.85;;;;;;;;;;5085246;28;20023;-61
2023/09/22 06:34:32;;;;;;;11.50;11.00;;;;;;;;;;5085362;28;20119;-62
2023/09/22 06:36:58;;;;;;;11.20;10.70;;;;;;;;;;5085797;28;20103;-62
2023/09/22 06:39:23;;;;;;;11.20;10.70;;;;;;;;;;5083275;28;20028;-62
2023/09/22 06:41:48;;;;;;;11.43;10.93;;;;;;;;;;5086450;28;20848;-61
2023/09/22 06:44:16;;;;;;;12.52;11.93;;;;;;;;;;5075904;28;20051;-60
2023/09/22 06:46:41;;;;;;;12.25;11.75;;;;;;;;;;5075351;28;20135;-60
2023/09/22 06:49:07;;;;;;;12.05;11.55;;;;;;;;;;5079195;28;20107;-60
2023/09/22 06:51:33;;;;;;;12.07;11.57;;;;;;;;;;5080690;28;20028;-60
2023/09/22 06:53:59;;;;;;;12.20;11.70;;;;;;;;;;5083478;28;20556;-61
2023/09/22 06:56:25;;;;;;;12.57;11.98;;;;;;;;;;5080203;28;20020;-60
2023/09/22 06:58:51;;;;;;;11.85;11.35;;;;;;;;;;5081749;28;20086;-62
2023/09/22 07:01:16;;;;;;;12.15;11.65;;;;;;;;;;5080722;28;20398;-60
2023/09/22 07:03:43;;;;;;;12.18;11.68;;;;;;;;;;5081331;28;20048;-61
2023/09/22 07:06:10;;;;;;;12.07;11.57;;;;;;;;;;5084060;28;20482;-59
2023/09/22 07:08:38;;;;;;;11.90;11.40;;;;;;;;;;5078871;28;20095;-62
2023/09/22 07:11:04;;;;;;;11.85;11.35;;;;;;;;;;5078190;28;20036;-61
2023/09/22 07:13:30;;;;;;;11.93;11.43;;;;;;;;;;5079380;28;20035;-60
2023/09/22 07:15:57;;;;;;;11.98;11.48;;;;;;;;;;5074470;28;20024;-60
2023/09/22 07:18:22;;;;;;;11.98;11.48;;;;;;;;;;5078264;28;20032;-60
2023/09/22 07:20:48;;;;;;;11.70;11.20;;;;;;;;;;5076481;28;20035;-60
2023/09/22 07:23:14;;;;;;;12.25;11.75;;;;;;;;;;5080267;28;20053;-59
2023/09/22 07:25:39;;;;;;;12.10;11.60;;;;;;;;;;5084454;28;20032;-62
2023/09/22 07:28:05;;;;;;;12.00;11.50;;;;;;;;;;5080475;28;20028;-61
2023/09/22 07:30:30;;;;;;;11.90;11.40;;;;;;;;;;5079069;28;20372;-62
2023/09/22 07:32:55;;;;;;;11.98;11.48;;;;;;;;;;5077482;28;20071;-61
2023/09/22 07:35:21;;;;;;;12.23;11.73;;;;;;;;;;5082009;28;20024;-62
2023/09/22 07:37:46;;;;;;;12.52;11.93;;;;;;;;;;5083978;28;20046;-61
2023/09/22 07:40:12;;;;;;;12.13;11.63;;;;;;;;;;5090570;28;20030;-60
2023/09/22 07:42:39;;;;;;;12.40;11.88;;;;;;;;;;5081772;28;20399;-61
2023/09/22 07:45:05;;;;;;;12.15;11.65;;;;;;;;;;5078451;28;20661;-61
2023/09/22 07:47:31;;;;;;;12.40;11.85;;;;;;;;;;5075537;28;20446;-60
2023/09/22 07:49:56;;;;;;;12.30;11.80;;;;;;;;;;5081695;28;20028;-61
2023/09/22 07:52:22;;;;;;;12.02;11.52;;;;;;;;;;5082867;28;20024;-61
2023/09/22 07:54:48;;;;;;;12.30;11.80;;;;;;;;;;5079283;28;20115;-60
2023/09/22 07:57:14;;;;;;;12.30;11.80;;;;;;;;;;5084105;28;20031;-61
2023/09/22 07:59:39;;;;;;;12.27;11.77;;;;;;;;;;5077485;28;20043;-62
2023/09/22 08:02:06;;;;;;;12.02;11.52;;;;;;;;;;5078666;28;20059;-61
2023/09/22 08:04:31;;;;;;;12.48;11.90;;;;;;;;;;5076206;28;20032;-60
2023/09/22 08:06:59;;;;;;;12.05;11.55;;;;;;;;;;5076946;28;20039;-61
2023/09/22 08:09:24;;;;;;;11.98;11.48;;;;;;;;;;5082227;28;20047;-61
2023/09/22 08:11:50;;;;;;;12.38;11.88;;;;;;;;;;5082512;28;20420;-61
2023/09/22 08:14:15;;;;;;;12.07;11.57;;;;;;;;;;5077957;28;20330;-61
2023/09/22 08:16:40;;;;;;;11.98;11.48;;;;;;;;;;5075980;28;20086;-60
2023/09/22 08:19:10;;;;;;;11.70;11.20;;;;;;;;;;5080865;28;20016;-60
2023/09/22 08:21:36;;;;;;;12.07;11.57;;;;;;;;;;5078458;28;20115;-60
2023/09/22 08:24:01;;;;;;;11.57;11.07;;;;;;;;;;5080190;28;20474;-59
2023/09/22 08:26:26;;;;;;;11.88;11.38;;;;;;;;;;5080830;28;20035;-60
2023/09/22 08:28:52;;;;;;;11.90;11.40;;;;;;;;;;5078848;28;20016;-60
2023/09/22 08:31:17;;;;;;;12.00;11.50;;;;;;;;;;5080411;28;20031;-61
2023/09/22 08:33:44;;;;;;;12.02;11.52;;;;;;;;;;5073303;28;20063;-62
2023/09/22 08:36:09;;;;;;;11.90;11.40;;;;;;;;;;5079087;28;20035;-61
2023/09/22 08:38:34;;;;;;;12.00;11.50;;;;;;;;;;5076262;28;20440;-61
2023/09/22 08:41:00;;;;;;;12.07;11.57;;;;;;;;;;5077905;28;20034;-60
2023/09/22 08:43:26;;;;;;;12.50;11.90;;;;;;;;;;5086718;28;20086;-60
2023/09/22 08:45:51;;;;;;;12.20;11.60;;;;;;;;;;5080923;28;20092;-61
2023/09/22 08:48:17;;;;;;;12.43;11.88;;;;;;;;;;5076596;28;20039;-61
2023/09/22 08:50:43;;;;;;;12.38;11.85;;;;;;;;;;5084844;28;20075;-61
2023/09/22 08:53:10;;;;;;;11.90;11.40;;;;;;;;;;5083612;28;20016;-60
2023/09/22 08:55:36;;;;;;;12.30;11.70;;;;;;;;;;5083052;28;20100;-59
2023/09/22 08:58:01;;;;;;;12.70;12.10;;;;;;;;;;5084862;28;20048;-61
2023/09/22 09:00:27;;;;;;;12.07;11.57;;;;;;;;;;5086664;28;20439;-61
2023/09/22 09:02:54;;;;;;;12.25;11.75;;;;;;;;;;5083924;28;20078;-61
2023/09/22 09:05:20;;;;;;;11.80;11.30;;;;;;;;;;5081472;28;20396;-61
2023/09/22 09:07:46;;;;;;;11.93;11.43;;;;;;;;;;5089423;28;20383;-61
2023/09/22 09:10:23;;;;;;;12.20;11.70;;;;;;;;;;5085200;28;20472;-61
2023/09/22 09:12:49;;;;;;;12.00;11.50;;;;;;;;;;5084154;28;20028;-61
2023/09/22 09:15:14;;;;;;;11.85;11.35;;;;;;;;;;5083156;28;20501;-59
2023/09/22 09:17:39;;;;;;;12.05;11.55;;;;;;;;;;5082003;28;20050;-63
2023/09/22 09:20:05;;;;;;;12.20;11.70;;;;;;;;;;5086479;28;20027;-60
2023/09/22 09:22:37;;;;;;;12.02;11.52;;;;;;;;;;5082503;28;20160;-63
2023/09/22 09:25:09;;;;;;;12.15;11.65;;;;;;;;;;5085338;28;20020;-59
2023/09/22 09:27:35;;;;;;;12.45;11.85;;;;;;;;;;5084967;28;20020;-61
2023/09/22 09:30:06;;;;;;;12.30;11.80;;;;;;;;;;5087555;28;20508;-61
2023/09/22 09:32:32;;;;;;;12.27;11.73;;;;;;;;;;5080079;28;20069;-59
2023/09/22 09:34:58;;;;;;;12.20;11.70;;;;;;;;;;5079230;28;20445;-60
2023/09/22 09:37:23;;;;;;;12.35;11.85;;;;;;;;;;5076318;28;20032;-60
2023/09/22 09:39:51;;;;;;;12.38;11.88;;;;;;;;;;5082460;28;20036;-61
2023/09/22 09:42:18;;;;;;;11.88;11.38;;;;;;;;;;5085397;28;20029;-60
2023/09/22 09:44:50;;;;;;;11.98;11.48;;;;;;;;;;5081759;28;20028;-61
2023/09/22 09:47:23;;;;;;;11.80;11.30;;;;;;;;;;5080178;28;20912;-61
2023/09/22 09:49:53;;;;;;;12.30;11.80;;;;;;;;;;5076774;28;20028;-61
2023/09/22 09:52:37;;;;;;;12.07;11.57;;;;;;;;;;5082091;28;20360;-60
2023/09/22 09:55:02;;;;;;;;;;;;;;;;;;5080136;28;20089;-60
2023/09/22 09:57:29;;;;;;;12.57;11.97;;;;;;;;;;5085693;28;19916;-61
2023/09/22 09:59:55;;;;;;;11.95;11.45;;;;;;;;;;5084432;28;20054;-62
2023/09/22 10:02:21;;;;;;;12.32;11.80;;;;;;;;;;5081583;28;20052;-61
2023/09/22 10:04:47;;;;;;;12.00;11.50;;;;;;;;;;5086728;28;20471;-63
2023/09/22 10:07:14;;;;;;;11.80;11.30;;;;;;;;;;5090134;28;20450;-63
2023/09/22 10:09:39;;;;;;;12.07;11.57;;;;;;;;;;5081610;28;20039;-65
2023/09/22 10:12:06;;;;;;;11.93;11.43;;;;;;;;;;5083032;28;20025;-63
2023/09/22 10:14:44;;;;;;;12.07;11.57;;;;;;;;;;5081488;28;20081;-64
2023/09/22 10:17:22;;;;;;;11.77;11.27;;;;;;;;;;5080507;28;20032;-65
2023/09/22 10:19:48;;;;;;;12.30;11.80;;;;;;;;;;5079255;28;20020;-62
2023/09/22 10:22:13;;;;;;;12.23;11.73;;;;;;;;;;5079385;28;20068;-63
2023/09/22 10:24:39;;;;;;;12.10;11.60;;;;;;;;;;5077930;28;20048;-63
2023/09/22 10:27:08;;;;;;;12.00;11.50;;;;;;;;;;5082296;28;20413;-64
2023/09/22 10:29:36;;;;;;;11.90;11.40;;;;;;;;;;5084038;28;20024;-62
2023/09/22 10:32:17;;;;;;;11.85;11.35;;;;;;;;;;5077967;28;20102;-62
2023/09/22 10:34:47;;;;;;;12.20;11.70;;;;;;;;;;5077650;28;20028;-63
2023/09/22 10:37:12;;;;;;;11.75;11.25;;;;;;;;;;5077983;28;20347;-66
2023/09/22 10:40:16;;;;;;;12.13;11.63;;;;;;;;;;5081892;28;20034;-62
2023/09/22 10:42:51;;;;;;;12.20;11.70;;;;;;;;;;5058016;28;20038;-62
2023/09/22 10:45:17;;;;;;;12.00;11.50;;;;;;;;;;5081079;28;21905;-61
2023/09/22 10:47:47;;;;;;;12.65;12.05;;;;;;;;;;5073369;28;20118;-63
2023/09/22 10:50:16;;;;;;;11.60;11.10;;;;;;;;;;5076925;28;20036;-62
2023/09/22 10:52:55;;;;;;;12.00;11.50;;;;;;;;;;5079961;28;20024;-63
2023/09/22 10:55:36;;;;;;;11.35;10.85;;;;;;;;;;5080714;28;20096;-69
2023/09/22 10:58:04;;;;;;;11.70;11.20;;;;;;;;;;5074172;28;20070;-63
2023/09/22 11:00:32;;;;;;;11.85;11.35;;;;;;;;;;5081511;28;20842;-63
2023/09/22 11:03:10;;;;;;;11.77;11.27;;;;;;;;;;5086478;28;20043;-63
2023/09/22 11:05:40;;;;;;;12.13;11.63;;;;;;;;;;5079298;28;20039;-63
2023/09/22 11:08:14;;;;;;;11.93;11.43;;;;;;;;;;5079100;28;20023;-64
2023/09/22 11:10:42;;;;;;;11.90;11.40;;;;;;;;;;5084532;28;20024;-63
2023/09/22 11:13:08;;;;;;;12.10;11.60;;;;;;;;;;5081562;28;20016;-62
2023/09/22 11:15:45;;;;;;;12.10;11.60;;;;;;;;;;5073574;28;20448;-62
2023/09/22 11:18:17;;;;;;;12.30;11.80;;;;;;;;;;5078898;28;20020;-62
2023/09/22 11:20:43;;;;;;;12.10;11.60;;;;;;;;;;5079059;28;20147;-63
2023/09/22 11:23:09;;;;;;;11.88;11.38;;;;;;;;;;5081258;28;20176;-63
2023/09/22 11:25:34;;;;;;;12.50;11.90;;;;;;;;;;5079752;28;20441;-61
2023/09/22 11:28:00;;;;;;;11.95;11.45;;;;;;;;;;5077046;28;20017;-65
2023/09/22 11:30:26;;;;;;;12.00;11.50;;;;;;;;;;5076168;28;20097;-61
2023/09/22 11:32:52;;;;;;;11.75;11.25;;;;;;;;;;5080569;28;20025;-63
2023/09/22 11:35:33;;;;;;;11.90;11.40;;;;;;;;;;5076181;28;20515;-63
2023/09/22 11:38:02;;;;;;;11.90;11.40;;;;;;;;;;5081271;28;20020;-63
2023/09/22 11:40:37;;;;;;;12.00;11.50;;;;;;;;;;5079480;28;20027;-63
2023/09/22 11:43:03;;;;;;;11.75;11.25;;;;;;;;;;5081339;28;20408;-64
2023/09/22 11:45:29;;;;;;;12.07;11.57;;;;;;;;;;5079702;28;20030;-62
2023/09/22 11:48:04;;;;;;;12.00;11.50;;;;;;;;;;5078190;28;20331;-63
2023/09/22 11:50:30;;;;;;;12.05;11.55;;;;;;;;;;5078621;28;20028;-63
2023/09/22 11:53:09;;;;;;;11.88;11.38;;;;;;;;;;5081759;28;20020;-63
2023/09/22 11:55:36;;;;;;;12.00;11.50;;;;;;;;;;5076159;28;20032;-63
2023/09/22 11:58:01;;;;;;;11.90;11.40;;;;;;;;;;5075298;28;20078;-62
2023/09/22 12:00:27;;;;;;;11.75;11.25;;;;;;;;;;5077048;28;20028;-64
2023/09/22 12:02:52;;;;;;;11.93;11.43;;;;;;;;;;5079838;28;20027;-62
2023/09/22 12:05:17;;;;;;;11.90;11.40;;;;;;;;;;5077433;28;20385;-64
2023/09/22 12:07:43;;;;;;;12.07;11.57;;;;;;;;;;5073803;28;20025;-63
2023/09/22 12:10:08;;;;;;;11.85;11.35;;;;;;;;;;5077050;28;20716;-61
2023/09/22 12:12:34;;;;;;;12.18;11.68;;;;;;;;;;5077288;28;20025;-62
2023/09/22 12:15:00;;;;;;;12.10;11.60;;;;;;;;;;5079342;28;20021;-61
2023/09/22 12:17:26;;;;;;;12.20;11.70;;;;;;;;;;5084702;28;20117;-62
2023/09/22 12:19:52;;;;;;;12.30;11.80;;;;;;;;;;5076412;28;20032;-62
2023/09/22 12:22:17;;;;;;;11.95;11.45;;;;;;;;;;5081619;28;20032;-61
2023/09/22 12:24:43;;;;;;;12.18;11.68;;;;;;;;;;5083455;28;20061;-62
2023/09/22 12:27:08;;;;;;;12.00;11.50;;;;;;;;;;5083342;28;20036;-62
2023/09/22 12:29:34;;;;;;;11.98;11.48;;;;;;;;;;5083662;28;20386;-61
2023/09/22 12:31:59;;;;;;;11.80;11.30;;;;;;;;;;5082747;28;20023;-62
2023/09/22 12:34:24;;;;;;;12.15;11.65;;;;;;;;;;5084797;28;20026;-63
2023/09/22 12:36:50;;;;;;;12.20;11.70;;;;;;;;;;5080059;28;20051;-61
2023/09/22 12:39:16;;;;;;;11.90;11.40;;;;;;;;;;5084711;28;20023;-61
2023/09/22 12:41:41;;;;;;;12.00;11.50;;;;;;;;;;5079029;28;20033;-63
2023/09/22 12:44:06;;;;;;;11.90;11.40;;;;;;;;;;5078932;28;20091;-63
2023/09/22 12:46:32;;;;;;;12.15;11.65;;;;;;;;;;5073341;28;20020;-63
2023/09/22 12:48:58;;;;;;;12.20;11.70;;;;;;;;;;5081253;28;20063;-64
2023/09/22 12:51:23;;;;;;;11.90;11.40;;;;;;;;;;5081029;28;20021;-61
2023/09/22 12:53:49;;;;;;;12.23;11.73;;;;;;;;;;5085679;28;20032;-63
2023/09/22 12:56:14;;;;;;;11.95;11.45;;;;;;;;;;5086719;28;20021;-65
2023/09/22 12:58:40;;;;;;;11.90;11.40;;;;;;;;;;5077013;28;20039;-65
2023/09/22 13:01:10;;;;;;;12.20;11.70;;;;;;;;;;5079658;28;20023;-63
2023/09/22 13:03:36;;;;;;;11.88;11.38;;;;;;;;;;5081770;28;20052;-63
2023/09/22 13:06:02;;;;;;;11.85;11.35;;;;;;;;;;5084095;28;20073;-65
2023/09/22 13:08:27;;;;;;;11.80;11.30;;;;;;;;;;5083504;28;20095;-62
2023/09/22 13:10:53;;;;;;;12.55;11.98;;;;;;;;;;5079380;28;20102;-61
2023/09/22 13:13:18;;;;;;;12.25;11.75;;;;;;;;;;5082629;28;20116;-64
2023/09/22 13:15:44;;;;;;;12.30;11.80;;;;;;;;;;5082450;28;20031;-62
2023/09/22 13:18:11;;;;;;;12.50;11.90;;;;;;;;;;5085770;28;20060;-61
2023/09/22 13:20:37;;;;;;;13.02;12.43;;;;;;;;;;5076784;28;20016;-63
2023/09/22 13:23:04;;;;;;;12.13;11.63;;;;;;;;;;5079662;28;20032;-62
2023/09/22 13:25:29;;;;;;;12.02;11.52;;;;;;;;;;5084764;28;20024;-62
2023/09/22 13:27:54;;;;;;;12.07;11.57;;;;;;;;;;5083232;28;20050;-64
2023/09/22 13:30:20;;;;;;;12.00;11.50;;;;;;;;;;5081623;28;20024;-65
2023/09/22 13:32:45;;;;;;;12.52;11.93;;;;;;;;;;5078175;28;20028;-65
2023/09/22 13:35:11;;;;;;;11.90;11.40;;;;;;;;;;5085247;28;20027;-63
2023/09/22 13:37:36;;;;;;;11.90;11.40;;;;;;;;;;5080899;28;20024;-62
2023/09/22 13:40:02;;;;;;;12.00;11.50;;;;;;;;;;5087335;28;20046;-62
2023/09/22 13:42:28;;;;;;;12.55;11.95;;;;;;;;;;5081748;28;20035;-63
2023/09/22 13:44:54;;;;;;;11.88;11.38;;;;;;;;;;5079721;28;20028;-63
2023/09/22 13:47:19;;;;;;;12.02;11.52;;;;;;;;;;5083104;28;20535;-62
2023/09/22 13:49:45;;;;;;;12.15;11.65;;;;;;;;;;5082859;28;20035;-62
2023/09/22 13:52:11;;;;;;;11.88;11.38;;;;;;;;;;5085517;28;20022;-62
2023/09/22 13:54:36;;;;;;;12.00;11.50;;;;;;;;;;5080937;28;20036;-61
2023/09/22 13:57:04;;;;;;;12.00;11.50;;;;;;;;;;5078871;28;20433;-63
2023/09/22 13:59:30;;;;;;;11.77;11.27;;;;;;;;;;5082549;28;20034;-61
2023/09/22 14:01:56;;;;;;;11.65;11.15;;;;;;;;;;5081674;28;20106;-62
2023/09/22 14:04:21;;;;;;;12.20;11.70;;;;;;;;;;5087989;28;20056;-63
2023/09/22 14:06:48;;;;;;;11.73;11.23;;;;;;;;;;5087769;28;20390;-64
2023/09/22 14:09:13;;;;;;;11.68;11.18;;;;;;;;;;5082868;28;20043;-61
2023/09/22 14:11:39;;;;;;;11.77;11.27;;;;;;;;;;5087952;28;20398;-64
2023/09/22 14:14:05;;;;;;;11.70;11.20;;;;;;;;;;5082991;28;20054;-61
2023/09/22 14:16:30;;;;;;;12.02;11.52;;;;;;;;;;5083267;28;20024;-70